LFBE/EGC METAR and TAF weather

Enter ICAO airport designator
Station Type Date Time Source
LFBE METAR 2019/10/15 19:00 UTC NOAA

LFBE 151900Z AUTO 22005KT 200V260 CAVOK 14/10 Q1017 NOSIG


Station Type Date Time Source
LFBE Decoded METAR 2019/10/15 19:00 UTC NOAA

Bergerac, France (LFBE) 44-49N 000-31E 52M
Oct 15, 2019 - 03:00 PM EDT / 2019.10.15 1900 UTC
Wind: from the SW (220 degrees) at 6 MPH (5 KT) (direction variable):0
Visibility: greater than 7 mile(s):0
Temperature: 57 F (14 C)
Dew Point: 50 F (10 C)
Relative Humidity: 76%
Pressure (altimeter): 30.03 in. Hg (1017 hPa)
ob: LFBE 151900Z AUTO 22005KT 200V260 CAVOK 14/10 Q1017 NOSIG
cycle: 19

Station Type Date Time Source
LFBE TAF 2019/10/15 12:21 UTC NOAA

TAF LFBE 151100Z 1512/1612 25010KT CAVOK
TEMPO 1512/1518 24015G25KT 3000 SHRA FEW030CB BKN040TCU
BECMG 1521/1523 16010KT

Example: see airport list